EKX weather

Addington Field
Elizabethtown, Kentucky, United States

Public forecast

Using degrees Fahrenheit for public forecast. Weather courtesy of forecast.io.

METAR (pilot weather report)

Closest report is Godman Army Air Field, 13.5 nm (24.9 km) N. Retrieved 2019/05/26 09:56 UTC (35 minutes ago):

KFTK 260956Z AUTO 19003KT 10SM CLR 20/18 A3009 RMK AO2 SLP186 T02000179

TAF (pilot weather forecast)

Closest forecast is Godman Army Air Field, 13.5 nm (24.9 km) N. Retrieved 2019/05/26 09:06 UTC (1 hour ago):

TAF KFTK 260900Z 2609/2715 23009KT 9999 FEW050 QNH3005INS BECMG 2617/2618 25015G25KT 9999 FEW030 SCT050 QNH2996INS TEMPO 2619/2623 27020G30KT 6000 -TSRA BKN015CB OVC040 BECMG 2622/2623 23009KT 9999 FEW020 SCT050 QNH2998INS TX31/2620Z TN19/2610Z